createdAt,value
2022-10-16T00:02:18.357Z,1.50
2022-10-16T00:04:45.011Z,1.23
2022-10-16T00:07:11.638Z,1.40
2022-10-16T00:09:38.243Z,1.30
2022-10-16T00:12:05.554Z,1.10
2022-10-16T00:14:32.141Z,1.13
2022-10-16T00:16:58.726Z,1.30
2022-10-16T00:19:25.435Z,1.30
2022-10-16T00:21:52.068Z,1.17
2022-10-16T00:24:37.681Z,1.27
2022-10-16T00:27:04.249Z,1.10
2022-10-16T00:29:30.792Z,1.20
2022-10-16T00:31:57.613Z,1.60
2022-10-16T00:34:24.172Z,1.00
2022-10-16T00:36:50.717Z,1.13
2022-10-16T00:39:17.302Z,1.10
2022-10-16T00:41:43.822Z,1.03
2022-10-16T00:44:29.084Z,1.03
2022-10-16T00:46:55.670Z,1.00
2022-10-16T00:49:22.309Z,1.00
2022-10-16T00:51:50.709Z,0.90
2022-10-16T00:54:20.123Z,1.00
2022-10-16T00:56:46.992Z,1.03
2022-10-16T00:59:16.506Z,0.80
2022-10-16T01:01:43.102Z,0.90
2022-10-16T01:04:09.683Z,1.10
2022-10-16T01:06:36.434Z,1.17
2022-10-16T01:09:11.192Z,1.20
2022-10-16T01:11:46.740Z,1.10
2022-10-16T01:14:20.885Z,0.90
2022-10-16T01:16:54.939Z,1.20
2022-10-16T01:19:33.960Z,1.30
2022-10-16T01:22:01.571Z,1.27
2022-10-16T01:24:39.102Z,1.17
2022-10-16T01:27:16.637Z,1.00
2022-10-16T01:29:49.741Z,1.00
2022-10-16T01:32:25.623Z,0.93
2022-10-16T01:34:54.520Z,1.53
2022-10-16T01:37:38.783Z,1.20
2022-10-16T01:40:07.206Z,1.20
2022-10-16T01:42:37.230Z,0.87
2022-10-16T01:45:07.585Z,0.90
2022-10-16T01:47:36.021Z,0.90
2022-10-16T01:50:05.833Z,0.70
2022-10-16T01:52:33.752Z,0.70
2022-10-16T01:55:01.074Z,0.80
2022-10-16T01:57:28.377Z,0.80
2022-10-16T01:59:57.275Z,0.70
2022-10-16T02:02:24.190Z,0.80
2022-10-16T02:04:54.476Z,0.87
2022-10-16T02:07:21.056Z,0.73
2022-10-16T02:09:47.663Z,0.63
2022-10-16T02:12:16.469Z,1.00
2022-10-16T02:14:43.019Z,0.60
2022-10-16T02:17:14.192Z,0.80
2022-10-16T02:19:41.671Z,0.60
2022-10-16T02:22:09.885Z,0.60
2022-10-16T02:24:42.570Z,0.60
2022-10-16T02:27:20.765Z,0.70
2022-10-16T02:29:51.390Z,0.80
2022-10-16T02:32:20.612Z,0.80
2022-10-16T02:34:48.056Z,0.67
2022-10-16T02:37:14.718Z,0.73
2022-10-16T02:39:41.768Z,0.70
2022-10-16T02:42:15.237Z,0.83
2022-10-16T02:44:41.843Z,0.90
2022-10-16T02:47:08.448Z,0.90
2022-10-16T02:49:35.075Z,0.90
2022-10-16T02:52:01.623Z,0.73
2022-10-16T02:54:28.177Z,0.90
2022-10-16T02:56:54.753Z,1.10
2022-10-16T02:59:21.364Z,0.93
2022-10-16T03:01:47.986Z,1.07
2022-10-16T03:04:14.644Z,0.83
2022-10-16T03:06:41.259Z,1.00
2022-10-16T03:09:07.886Z,1.00
2022-10-16T03:11:34.428Z,1.10
2022-10-16T03:14:01.244Z,1.13
2022-10-16T03:16:27.861Z,1.27
2022-10-16T03:18:54.429Z,1.17
2022-10-16T03:21:21.071Z,1.20
2022-10-16T03:23:47.826Z,1.13
2022-10-16T03:26:14.377Z,1.13
2022-10-16T03:28:42.119Z,1.10
2022-10-16T03:31:09.315Z,1.10
2022-10-16T03:33:35.871Z,1.20
2022-10-16T03:36:02.551Z,1.07
2022-10-16T03:38:29.101Z,1.30
2022-10-16T03:40:55.798Z,1.27
2022-10-16T03:43:23.244Z,1.27
2022-10-16T03:45:51.449Z,1.23
2022-10-16T03:48:18.551Z,1.40
2022-10-16T03:50:45.148Z,1.30
2022-10-16T03:53:11.744Z,1.57
2022-10-16T03:55:38.395Z,1.67
2022-10-16T03:58:05.040Z,1.90
2022-10-16T04:00:31.592Z,1.53
2022-10-16T04:02:58.121Z,1.70
2022-10-16T04:05:24.759Z,1.30
2022-10-16T04:07:51.311Z,1.20
2022-10-16T04:10:18.227Z,1.60
2022-10-16T04:12:44.769Z,1.50
2022-10-16T04:15:11.676Z,1.43
2022-10-16T04:17:38.395Z,1.53
2022-10-16T04:20:05.297Z,1.70
2022-10-16T04:22:31.866Z,1.40
2022-10-16T04:24:58.431Z,1.67
2022-10-16T04:27:25.619Z,1.70
2022-10-16T04:29:52.422Z,1.80
2022-10-16T04:32:18.945Z,1.57
2022-10-16T04:34:45.656Z,1.80
2022-10-16T04:37:12.199Z,1.50
2022-10-16T04:39:38.744Z,1.70
2022-10-16T04:42:05.522Z,1.90
2022-10-16T04:44:32.053Z,1.97
2022-10-16T04:46:58.605Z,2.10
2022-10-16T04:49:25.168Z,1.93
2022-10-16T04:51:51.709Z,1.83
2022-10-16T04:54:18.235Z,2.20
2022-10-16T04:56:48.190Z,2.17
2022-10-16T04:59:15.633Z,2.10
2022-10-16T05:01:42.203Z,2.40
2022-10-16T05:04:08.990Z,2.00
2022-10-16T05:06:35.638Z,2.13
2022-10-16T05:09:02.419Z,2.40
2022-10-16T05:11:29.003Z,2.33
2022-10-16T05:13:56.036Z,2.10
2022-10-16T05:16:22.799Z,2.40
2022-10-16T05:18:52.987Z,2.20
2022-10-16T05:21:19.928Z,2.27
2022-10-16T05:23:46.465Z,2.20
2022-10-16T05:26:13.168Z,2.47
2022-10-16T05:28:39.809Z,2.97
2022-10-16T05:31:07.716Z,2.40
2022-10-16T05:33:34.606Z,2.37
2022-10-16T05:36:04.402Z,2.73
2022-10-16T05:38:31.044Z,2.33
2022-10-16T05:40:57.983Z,2.40
2022-10-16T05:43:24.719Z,2.50
2022-10-16T05:45:55.306Z,2.50
2022-10-16T05:48:21.828Z,2.40
2022-10-16T05:50:48.538Z,2.50
2022-10-16T05:53:15.109Z,2.40
2022-10-16T05:55:41.674Z,2.47
2022-10-16T05:58:08.256Z,2.13
2022-10-16T06:00:34.844Z,2.47
2022-10-16T06:03:01.740Z,2.70
2022-10-16T06:05:28.299Z,2.80
2022-10-16T06:07:54.848Z,2.53
2022-10-16T06:10:21.397Z,3.13
2022-10-16T06:12:47.932Z,2.43
2022-10-16T06:15:14.504Z,2.67
2022-10-16T06:17:41.037Z,3.00
2022-10-16T06:20:07.700Z,2.40
2022-10-16T06:22:34.470Z,2.87
2022-10-16T06:25:00.988Z,2.33
2022-10-16T06:27:27.738Z,2.40
2022-10-16T06:29:54.573Z,2.43
2022-10-16T06:32:22.679Z,2.10
2022-10-16T06:34:49.200Z,2.17
2022-10-16T06:37:15.767Z,3.00
2022-10-16T06:39:42.563Z,2.90
2022-10-16T06:42:09.093Z,2.80
2022-10-16T06:44:36.354Z,2.50
2022-10-16T06:47:02.989Z,2.83
2022-10-16T06:49:29.652Z,2.50
2022-10-16T06:51:56.203Z,2.70
2022-10-16T06:54:22.820Z,2.33
2022-10-16T06:56:49.350Z,2.30
2022-10-16T06:59:15.885Z,2.30
2022-10-16T07:01:42.575Z,2.70
2022-10-16T07:04:09.192Z,2.30
2022-10-16T07:06:35.827Z,2.67
2022-10-16T07:09:03.961Z,2.27
2022-10-16T07:11:30.528Z,2.33
2022-10-16T07:13:57.079Z,2.00
2022-10-16T07:16:25.504Z,2.23
2022-10-16T07:18:55.395Z,2.17
2022-10-16T07:21:23.566Z,2.10
2022-10-16T07:23:54.030Z,2.13
2022-10-16T07:26:20.935Z,1.50
2022-10-16T07:28:47.660Z,1.70
2022-10-16T07:31:15.212Z,2.00
2022-10-16T07:33:44.209Z,2.10
2022-10-16T07:36:15.845Z,1.90
2022-10-16T07:38:43.407Z,1.63
2022-10-16T07:41:14.845Z,2.10
2022-10-16T07:43:41.668Z,1.60
2022-10-16T07:46:08.290Z,1.63
2022-10-16T07:48:35.406Z,1.67
2022-10-16T07:51:03.417Z,1.70
2022-10-16T07:53:30.001Z,1.40
2022-10-16T07:56:04.589Z,1.70
2022-10-16T07:58:31.534Z,1.70
2022-10-16T08:00:59.143Z,1.47
2022-10-16T08:03:26.523Z,1.80
2022-10-16T08:05:53.373Z,1.90
2022-10-16T08:08:20.010Z,1.77
2022-10-16T08:10:46.663Z,1.37
2022-10-16T08:13:16.230Z,1.60
2022-10-16T08:15:43.726Z,1.23
2022-10-16T08:18:10.744Z,1.47
2022-10-16T08:20:37.290Z,1.30
2022-10-16T08:23:04.220Z,1.27
2022-10-16T08:25:31.064Z,1.17
2022-10-16T08:27:57.606Z,1.00
2022-10-16T08:30:24.412Z,1.20
2022-10-16T08:32:51.043Z,1.07
2022-10-16T08:35:18.119Z,1.10
2022-10-16T08:37:44.895Z,0.90
2022-10-16T08:40:18.603Z,0.80
2022-10-16T08:42:45.208Z,1.00
2022-10-16T08:45:14.874Z,1.00
2022-10-16T08:47:54.004Z,1.10
2022-10-16T08:50:29.028Z,1.03
2022-10-16T08:52:56.943Z,0.87
2022-10-16T08:55:26.541Z,0.80
2022-10-16T08:57:53.332Z,0.90
2022-10-16T09:00:20.341Z,0.70
2022-10-16T09:02:53.177Z,0.80
2022-10-16T09:05:31.756Z,0.77
2022-10-16T09:08:07.821Z,0.80
2022-10-16T09:10:43.519Z,0.80
2022-10-16T09:13:11.042Z,0.70
2022-10-16T09:15:42.478Z,1.00
2022-10-16T09:18:12.144Z,0.70
2022-10-16T09:20:38.719Z,0.70
2022-10-16T09:23:06.302Z,1.00
2022-10-16T09:25:33.309Z,0.80
2022-10-16T09:27:59.877Z,0.90
2022-10-16T09:30:28.371Z,0.80
2022-10-16T09:32:55.325Z,0.80
2022-10-16T09:35:25.750Z,0.57
2022-10-16T09:37:52.954Z,0.70
2022-10-16T09:40:33.284Z,0.83
2022-10-16T09:43:07.041Z,0.60
2022-10-16T09:45:33.634Z,0.67
2022-10-16T09:48:02.412Z,0.70
2022-10-16T09:50:29.463Z,0.60
2022-10-16T09:53:23.728Z,0.70
2022-10-16T09:55:51.178Z,0.70
2022-10-16T09:58:17.848Z,0.60
2022-10-16T10:00:50.629Z,0.60
2022-10-16T10:03:36.022Z,0.60
2022-10-16T10:06:18.210Z,0.90
2022-10-16T10:08:55.469Z,0.67
2022-10-16T10:11:38.108Z,0.53
2022-10-16T10:14:05.874Z,0.50
2022-10-16T10:16:32.489Z,0.70
2022-10-16T10:18:59.899Z,0.60
2022-10-16T10:21:26.447Z,0.60
2022-10-16T10:23:57.828Z,0.80
2022-10-16T10:26:29.061Z,0.50
2022-10-16T10:28:55.828Z,0.50
2022-10-16T10:31:45.831Z,0.70
2022-10-16T10:34:12.396Z,0.60
2022-10-16T10:36:40.439Z,0.63
2022-10-16T10:39:25.795Z,0.70
2022-10-16T10:42:01.675Z,0.77
2022-10-16T10:44:33.819Z,0.90
2022-10-16T10:47:22.329Z,0.70
2022-10-16T10:49:55.028Z,0.80
2022-10-16T10:52:24.680Z,0.80
2022-10-16T10:55:10.191Z,0.70
2022-10-16T10:57:42.495Z,0.60
2022-10-16T11:00:19.956Z,0.80
2022-10-16T11:03:12.089Z,0.80
2022-10-16T11:05:43.437Z,0.80
2022-10-16T11:08:12.868Z,0.70
2022-10-16T11:10:45.490Z,0.73
2022-10-16T11:13:18.687Z,0.73
2022-10-16T11:18:43.573Z,0.60
2022-10-16T11:21:13.572Z,0.67
2022-10-16T11:23:44.263Z,0.67
2022-10-16T11:26:16.284Z,0.60
2022-10-16T11:28:48.168Z,0.80
2022-10-16T11:31:14.864Z,0.90
2022-10-16T11:33:45.206Z,0.50
2022-10-16T11:36:15.284Z,0.50
2022-10-16T11:38:44.936Z,0.57
2022-10-16T11:41:25.586Z,0.60
2022-10-16T11:44:11.181Z,0.67
2022-10-16T11:46:52.627Z,0.90
2022-10-16T11:49:27.707Z,1.20
2022-10-16T11:52:03.165Z,0.80
2022-10-16T11:54:35.256Z,0.60
2022-10-16T11:57:04.345Z,0.70
2022-10-16T11:59:30.910Z,0.70
2022-10-16T12:02:17.788Z,0.40
2022-10-16T12:04:47.892Z,0.80
2022-10-16T12:07:19.917Z,0.80
2022-10-16T12:09:46.535Z,0.63
2022-10-16T12:12:34.488Z,0.60
2022-10-16T12:15:29.892Z,0.70
2022-10-16T12:18:01.739Z,0.50
2022-10-16T12:20:33.178Z,0.47
2022-10-16T12:23:06.492Z,0.60
2022-10-16T12:25:37.356Z,0.70
2022-10-16T12:28:16.189Z,0.60
2022-10-16T12:30:43.596Z,0.80
2022-10-16T12:33:36.638Z,0.70
2022-10-16T12:36:05.607Z,0.80
2022-10-16T12:38:37.927Z,0.67
2022-10-16T12:41:06.215Z,1.13
2022-10-16T12:43:32.838Z,0.60
2022-10-16T12:46:03.937Z,0.60
2022-10-16T12:48:42.337Z,0.50
2022-10-16T12:51:30.720Z,0.60
2022-10-16T12:54:04.587Z,0.90
2022-10-16T12:59:47.441Z,0.70
2022-10-16T13:02:45.195Z,0.60
2022-10-16T13:05:11.839Z,0.70
2022-10-16T13:07:41.511Z,0.70
2022-10-16T13:10:25.637Z,0.60
2022-10-16T13:12:52.184Z,0.70
2022-10-16T13:15:18.813Z,0.50
2022-10-16T13:17:48.475Z,0.60
2022-10-16T13:20:31.016Z,0.67
2022-10-16T13:23:00.737Z,0.50
2022-10-16T13:25:43.778Z,0.60
2022-10-16T13:28:12.166Z,0.60
2022-10-16T13:30:45.850Z,0.70
2022-10-16T13:33:12.553Z,0.60
2022-10-16T13:35:47.650Z,0.40
2022-10-16T13:38:14.799Z,0.60
2022-10-16T13:40:53.763Z,0.57
2022-10-16T13:43:21.967Z,0.70
2022-10-16T13:45:58.827Z,0.70
2022-10-16T13:48:25.791Z,0.60
2022-10-16T13:51:01.728Z,0.60
2022-10-16T13:53:28.521Z,0.50
2022-10-16T13:55:55.265Z,0.47
2022-10-16T13:58:21.976Z,0.90
2022-10-16T14:01:18.029Z,0.30
2022-10-16T14:03:45.575Z,0.80
2022-10-16T14:06:14.788Z,0.70
2022-10-16T14:08:43.744Z,0.77
2022-10-16T14:11:10.480Z,0.70
2022-10-16T14:13:44.131Z,0.80
2022-10-16T14:16:11.688Z,0.70
2022-10-16T14:18:39.269Z,0.80
2022-10-16T14:21:07.346Z,0.73
2022-10-16T14:23:36.353Z,0.90
2022-10-16T14:26:09.189Z,0.80
2022-10-16T14:28:37.110Z,0.90
2022-10-16T14:31:16.328Z,0.70
2022-10-16T14:33:42.912Z,0.80
2022-10-16T14:36:17.727Z,0.80
2022-10-16T14:38:49.323Z,0.70
2022-10-16T14:41:16.190Z,0.80
2022-10-16T14:43:45.624Z,0.90
2022-10-16T14:46:15.635Z,0.70
2022-10-16T14:48:46.953Z,0.73
2022-10-16T14:51:17.458Z,0.77
2022-10-16T14:53:44.106Z,0.60
2022-10-16T14:56:33.133Z,0.97
2022-10-16T14:59:00.244Z,0.90
2022-10-16T15:01:26.871Z,0.90
2022-10-16T15:03:55.562Z,0.90
2022-10-16T15:06:22.695Z,0.73
2022-10-16T15:08:49.437Z,0.70
2022-10-16T15:11:17.330Z,1.10
2022-10-16T15:13:43.975Z,0.87
2022-10-16T15:16:11.932Z,0.77
2022-10-16T15:18:38.515Z,0.83
2022-10-16T15:21:05.273Z,1.10
2022-10-16T15:23:32.198Z,1.00
2022-10-16T15:25:58.845Z,1.00
2022-10-16T15:28:26.760Z,0.90
2022-10-16T15:30:54.364Z,1.17
2022-10-16T15:33:25.560Z,0.80
2022-10-16T15:35:52.768Z,0.93
2022-10-16T15:38:20.192Z,1.00
2022-10-16T15:40:47.461Z,1.20
2022-10-16T15:43:14.174Z,0.90
2022-10-16T15:45:40.965Z,0.90
2022-10-16T15:48:10.879Z,1.00
2022-10-16T15:50:38.978Z,1.00
2022-10-16T15:53:05.706Z,1.20
2022-10-16T15:55:32.377Z,1.40
2022-10-16T15:57:58.902Z,1.40
2022-10-16T16:00:26.685Z,1.40
2022-10-16T16:02:54.143Z,1.33
2022-10-16T16:05:21.118Z,1.50
2022-10-16T16:07:47.847Z,1.50
2022-10-16T16:10:14.532Z,1.47
2022-10-16T16:12:41.164Z,1.30
2022-10-16T16:15:09.041Z,1.90
2022-10-16T16:17:35.921Z,1.37
2022-10-16T16:20:02.542Z,1.90
2022-10-16T16:22:29.724Z,1.30
2022-10-16T16:24:56.685Z,1.50
2022-10-16T16:27:26.165Z,1.93
2022-10-16T16:29:54.402Z,1.97
2022-10-16T16:32:21.028Z,1.90
2022-10-16T16:34:47.904Z,1.47
2022-10-16T16:37:14.632Z,1.83
2022-10-16T16:39:41.352Z,1.47
2022-10-16T16:42:08.528Z,1.30
2022-10-16T16:44:37.228Z,1.30
2022-10-16T16:47:04.548Z,1.33
2022-10-16T16:49:31.139Z,1.50
2022-10-16T16:51:58.253Z,1.37
2022-10-16T16:54:25.065Z,1.00
2022-10-16T16:56:51.712Z,1.30
2022-10-16T16:59:20.681Z,1.50
2022-10-16T17:01:48.501Z,1.20
2022-10-16T17:04:16.624Z,1.50
2022-10-16T17:06:43.513Z,1.40
2022-10-16T17:09:10.661Z,1.50
2022-10-16T17:11:37.297Z,1.70
2022-10-16T17:14:04.209Z,1.80
2022-10-16T17:16:35.587Z,1.70
2022-10-16T17:19:03.640Z,2.03
2022-10-16T17:21:31.616Z,2.27
2022-10-16T17:23:58.249Z,1.87
2022-10-16T17:26:24.973Z,2.17
2022-10-16T17:28:55.970Z,2.20
2022-10-16T17:31:26.883Z,2.10
2022-10-16T17:33:53.485Z,2.50
2022-10-16T17:36:20.476Z,2.10
2022-10-16T17:38:47.093Z,2.20
2022-10-16T17:41:14.970Z,2.30
2022-10-16T17:43:41.526Z,2.20
2022-10-16T17:46:09.199Z,2.13
2022-10-16T17:48:39.602Z,2.87
2022-10-16T17:51:07.219Z,1.67
2022-10-16T17:53:33.792Z,1.47
2022-10-16T17:56:07.280Z,1.60
2022-10-16T17:58:34.382Z,1.60
2022-10-16T18:01:01.562Z,1.70
2022-10-16T18:03:28.556Z,1.70
2022-10-16T18:05:56.106Z,1.70
2022-10-16T18:08:26.338Z,1.50
2022-10-16T18:10:55.617Z,1.50
2022-10-16T18:13:22.261Z,1.43
2022-10-16T18:15:58.974Z,1.40
2022-10-16T18:18:28.792Z,2.00
2022-10-16T18:20:59.663Z,1.80
2022-10-16T18:23:26.676Z,1.90
2022-10-16T18:25:53.574Z,2.07
2022-10-16T18:28:20.280Z,1.53
2022-10-16T18:30:54.546Z,1.40
2022-10-16T18:33:21.132Z,1.57
2022-10-16T18:35:47.801Z,1.70
2022-10-16T18:38:14.373Z,1.60
2022-10-16T18:40:40.921Z,1.80
2022-10-16T18:43:07.640Z,2.10
2022-10-16T18:45:34.243Z,2.10
2022-10-16T18:48:00.972Z,1.90
2022-10-16T18:50:28.576Z,1.90
2022-10-16T18:52:55.187Z,1.93
2022-10-16T18:55:22.693Z,2.20
2022-10-16T18:57:49.242Z,1.97
2022-10-16T19:00:15.869Z,2.77
2022-10-16T19:02:42.457Z,2.77
2022-10-16T19:05:13.372Z,3.43
2022-10-16T19:07:45.114Z,3.40
2022-10-16T19:10:11.736Z,2.57
2022-10-16T19:12:38.283Z,2.17
2022-10-16T19:15:05.083Z,2.00
2022-10-16T19:17:31.697Z,2.10
2022-10-16T19:19:58.952Z,2.00
2022-10-16T19:22:31.203Z,1.93
2022-10-16T19:24:57.905Z,2.50
2022-10-16T19:27:24.553Z,2.63
2022-10-16T19:29:51.166Z,2.80
2022-10-16T19:32:17.797Z,2.67
2022-10-16T19:34:46.074Z,2.83
2022-10-16T19:37:12.705Z,2.60
2022-10-16T19:39:39.346Z,2.30
2022-10-16T19:42:05.902Z,2.30
2022-10-16T19:44:32.476Z,2.30
2022-10-16T19:46:59.039Z,2.53
2022-10-16T19:49:25.705Z,2.40
2022-10-16T19:51:52.343Z,2.80
2022-10-16T19:54:19.351Z,2.50
2022-10-16T19:56:46.053Z,2.30
2022-10-16T19:59:13.535Z,2.80
2022-10-16T20:01:40.259Z,2.50
2022-10-16T20:04:06.909Z,2.33
2022-10-16T20:06:33.512Z,2.83
2022-10-16T20:09:00.209Z,3.17
2022-10-16T20:11:34.709Z,2.90
2022-10-16T20:14:01.729Z,3.50
2022-10-16T20:16:29.299Z,2.83
2022-10-16T20:18:56.204Z,2.90
2022-10-16T20:21:25.202Z,3.33
2022-10-16T20:23:52.143Z,3.50
2022-10-16T20:26:19.805Z,4.20
2022-10-16T20:28:46.402Z,3.67
2022-10-16T20:31:22.591Z,3.57
2022-10-16T20:33:52.921Z,4.37
2022-10-16T20:36:20.710Z,4.40
2022-10-16T20:38:47.310Z,5.40
2022-10-16T20:41:14.317Z,5.90
2022-10-16T20:46:13.574Z,5.03
2022-10-16T20:48:44.088Z,4.73
2022-10-16T20:51:12.070Z,4.90
2022-10-16T20:53:39.562Z,3.77
2022-10-16T20:56:09.050Z,4.13
2022-10-16T20:58:36.872Z,4.20
2022-10-16T21:01:10.464Z,3.57
2022-10-16T21:03:37.790Z,3.63
2022-10-16T21:06:05.501Z,4.00
2022-10-16T21:08:41.081Z,3.60
2022-10-16T21:11:18.986Z,3.60
2022-10-16T21:13:45.738Z,3.73
2022-10-16T21:16:13.643Z,3.77
2022-10-16T21:18:44.270Z,3.93
2022-10-16T21:21:12.219Z,3.40
2022-10-16T21:23:38.783Z,4.23
2022-10-16T21:26:05.390Z,3.60
2022-10-16T21:28:32.704Z,3.63
2022-10-16T21:30:59.510Z,3.83
2022-10-16T21:33:26.943Z,3.70
2022-10-16T21:35:53.512Z,3.87
2022-10-16T21:38:20.071Z,4.40
2022-10-16T21:40:46.624Z,4.03
2022-10-16T21:43:13.262Z,4.20
2022-10-16T21:45:39.824Z,4.20
2022-10-16T21:48:06.484Z,4.30
2022-10-16T21:50:33.059Z,4.00
2022-10-16T21:52:59.649Z,4.90
2022-10-16T21:55:26.233Z,4.60
2022-10-16T21:57:52.890Z,5.60
2022-10-16T22:00:19.633Z,5.47
2022-10-16T22:02:46.255Z,5.03
2022-10-16T22:05:12.836Z,5.07
2022-10-16T22:07:39.381Z,5.10
2022-10-16T22:10:06.209Z,5.50
2022-10-16T22:12:32.817Z,5.60
2022-10-16T22:14:59.389Z,5.10
2022-10-16T22:17:26.103Z,5.10
2022-10-16T22:19:52.785Z,5.50
2022-10-16T22:22:19.355Z,5.23
2022-10-16T22:24:46.923Z,5.87
2022-10-16T22:27:13.514Z,6.03
2022-10-16T22:29:40.077Z,6.00
2022-10-16T22:32:06.677Z,6.50
2022-10-16T22:34:33.287Z,6.00
2022-10-16T22:36:59.812Z,6.23
2022-10-16T22:39:28.209Z,6.33
2022-10-16T22:41:54.743Z,6.00
2022-10-16T22:44:21.355Z,6.03
2022-10-16T22:46:47.914Z,6.63
2022-10-16T22:49:17.418Z,6.60
2022-10-16T22:51:44.222Z,6.43
2022-10-16T22:54:10.803Z,6.60
2022-10-16T22:56:37.375Z,6.53
2022-10-16T22:59:04.151Z,6.87
2022-10-16T23:01:33.083Z,6.47
2022-10-16T23:04:01.325Z,6.53
2022-10-16T23:06:28.323Z,6.67
2022-10-16T23:08:55.930Z,6.90
2022-10-16T23:11:23.176Z,6.43
2022-10-16T23:13:49.917Z,6.80
2022-10-16T23:16:17.740Z,6.80
2022-10-16T23:18:44.646Z,7.70
2022-10-16T23:21:12.569Z,7.47
2022-10-16T23:23:39.456Z,6.97
2022-10-16T23:26:10.224Z,7.10
2022-10-16T23:28:37.298Z,7.57
2022-10-16T23:31:05.373Z,7.77
2022-10-16T23:33:32.513Z,8.43
2022-10-16T23:35:59.122Z,8.13
2022-10-16T23:38:25.707Z,7.30
2022-10-16T23:40:52.254Z,7.70
2022-10-16T23:43:18.878Z,7.50
2022-10-16T23:45:45.453Z,7.07
2022-10-16T23:48:12.042Z,7.40
2022-10-16T23:50:38.624Z,6.73
2022-10-16T23:53:07.910Z,7.30
2022-10-16T23:55:36.831Z,7.00
2022-10-16T23:58:03.813Z,7.60
